Time;durP1;ratioP1;P1;durP2;ratioP2;P2;SDS_P1;SDS_P2;PMS_P1;PMS_P2;Temp;Humidity;BMP_temperature;BMP_pressure;BME280_temperature;BME280_humidity;BME280_pressure;Samples;Min_cycle;Max_cycle;Signal;HPM_P1;HPM_P2
2021/10/12 00:02:09;;;;;;;0.82;0.40;;;;;18.10;102301.00;;;;5049992;28;20207;-81
2021/10/12 00:04:38;;;;;;;2.60;0.60;;;;;18.00;102304.00;;;;5050169;28;20554;-81
2021/10/12 00:07:06;;;;;;;1.90;0.60;;;;;18.10;102303.00;;;;5048032;28;21089;-80
2021/10/12 00:09:33;;;;;;;1.20;0.57;;;;;18.10;102302.00;;;;5050093;28;20207;-81
2021/10/12 00:12:00;;;;;;;1.52;0.82;;;;;18.00;102299.00;;;;5041827;28;20228;-80
2021/10/12 00:14:28;;;;;;;1.45;0.85;;;;;18.00;102294.00;;;;5030246;28;20211;-81
2021/10/12 00:16:56;;;;;;;2.05;0.65;;;;;18.00;102292.00;;;;5029686;28;20639;-80
2021/10/12 00:19:23;;;;;;;2.10;0.73;;;;;18.00;102298.00;;;;5029455;28;20192;-81
2021/10/12 00:21:51;;;;;;;1.95;0.98;;;;;18.00;102292.00;;;;5045667;28;20222;-80
2021/10/12 00:24:19;;;;;;;1.42;0.70;;;;;18.00;102294.00;;;;5038273;28;20211;-80
2021/10/12 00:26:46;;;;;;;1.20;0.77;;;;;18.00;102284.00;;;;5033258;28;20207;-81
2021/10/12 00:29:13;;;;;;;3.00;0.63;;;;;18.00;102283.00;;;;5032994;28;20200;-81
2021/10/12 00:31:40;;;;;;;4.35;0.98;;;;;18.00;102273.00;;;;5052507;28;20223;-81
2021/10/12 00:34:08;;;;;;;2.83;0.80;;;;;18.00;102275.00;;;;5048855;28;20661;-81
2021/10/12 00:36:35;;;;;;;0.95;0.55;;;;;18.00;102264.00;;;;5041187;28;20192;-81
2021/10/12 00:39:04;;;;;;;3.03;1.60;;;;;17.90;102262.00;;;;5049038;28;20230;-82
2021/10/12 00:41:31;;;;;;;2.65;0.68;;;;;18.00;102270.00;;;;5049713;28;20210;-81
2021/10/12 00:44:00;;;;;;;1.60;0.80;;;;;18.00;102265.00;;;;5048464;28;20211;-81
2021/10/12 00:46:27;;;;;;;3.50;1.02;;;;;18.00;102258.00;;;;5031807;28;20207;-81
2021/10/12 00:48:56;;;;;;;1.75;0.60;;;;;17.90;102248.00;;;;5048035;28;20211;-81
2021/10/12 00:51:24;;;;;;;3.97;1.00;;;;;17.90;102248.00;;;;5053051;28;20222;-81
2021/10/12 00:53:51;;;;;;;1.30;0.80;;;;;17.90;102250.00;;;;5069445;28;20211;-80
2021/10/12 00:56:21;;;;;;;5.20;0.98;;;;;17.90;102248.00;;;;5053038;28;20199;-80
2021/10/12 00:58:48;;;;;;;3.45;1.30;;;;;17.90;102245.00;;;;5029460;28;20215;-80
2021/10/12 01:01:16;;;;;;;1.63;0.60;;;;;17.90;102250.00;;;;5036610;28;20207;-81
2021/10/12 01:03:43;;;;;;;2.17;0.63;;;;;17.90;102245.00;;;;5039123;28;20227;-81
2021/10/12 01:06:10;;;;;;;1.52;0.60;;;;;17.90;102243.00;;;;5044726;28;20195;-81
2021/10/12 01:08:38;;;;;;;1.65;0.80;;;;;17.90;102232.00;;;;5048630;28;20207;-81
2021/10/12 01:11:05;;;;;;;1.10;0.63;;;;;17.90;102234.00;;;;5048866;28;20231;-81
2021/10/12 01:13:34;;;;;;;1.38;0.80;;;;;17.90;102225.00;;;;5048267;28;20588;-81
2021/10/12 01:16:02;;;;;;;2.53;0.65;;;;;17.90;102233.00;;;;5037899;28;20672;-81
2021/10/12 01:18:29;;;;;;;3.15;0.80;;;;;17.90;102224.00;;;;5028531;28;20291;-81
2021/10/12 01:20:58;;;;;;;5.97;0.73;;;;;17.90;102225.00;;;;5032196;28;20206;-81
2021/10/12 01:23:25;;;;;;;2.38;0.70;;;;;17.80;102216.00;;;;5049334;28;20204;-81
2021/10/12 01:25:53;;;;;;;1.63;0.70;;;;;17.90;102213.00;;;;5048291;28;20203;-80
2021/10/12 01:28:20;;;;;;;1.45;0.68;;;;;17.80;102214.00;;;;5048803;28;20204;-81
2021/10/12 01:30:47;;;;;;;2.10;0.90;;;;;17.80;102204.00;;;;5048916;28;20194;-80
2021/10/12 01:33:15;;;;;;;2.33;0.85;;;;;17.80;102204.00;;;;5035681;28;20198;-80
2021/10/12 01:35:42;;;;;;;3.75;1.38;;;;;17.80;102207.00;;;;5036547;28;20204;-80
2021/10/12 01:38:10;;;;;;;3.25;0.82;;;;;17.80;102200.00;;;;5035789;28;20200;-80
2021/10/12 01:40:38;;;;;;;1.65;0.45;;;;;17.80;102204.00;;;;5048730;28;20196;-80
2021/10/12 01:43:05;;;;;;;1.85;0.57;;;;;17.80;102190.00;;;;5044784;28;20202;-80
2021/10/12 01:45:32;;;;;;;1.63;0.55;;;;;17.80;102193.00;;;;5047762;28;20204;-81
2021/10/12 01:47:59;;;;;;;1.88;0.65;;;;;17.80;102184.00;;;;5045846;28;20214;-80
2021/10/12 01:50:26;;;;;;;2.55;0.93;;;;;17.80;102187.00;;;;5045519;28;20214;-80
2021/10/12 01:52:54;;;;;;;1.70;0.50;;;;;17.80;102185.00;;;;5058109;28;20223;-80
2021/10/12 01:55:24;;;;;;;1.60;0.65;;;;;17.70;102181.00;;;;5049205;28;20202;-81
2021/10/12 01:57:52;;;;;;;1.58;0.80;;;;;17.80;102181.00;;;;5047851;28;20745;-80
2021/10/12 02:00:19;;;;;;;3.83;0.43;;;;;17.80;102176.00;;;;5049058;28;20287;-81
2021/10/12 02:02:46;;;;;;;3.70;0.60;;;;;17.70;102165.00;;;;5032633;28;20211;-81
2021/10/12 02:05:14;;;;;;;3.60;0.40;;;;;17.80;102169.00;;;;5028764;28;20204;-81
2021/10/12 02:07:41;;;;;;;2.20;0.50;;;;;17.80;102166.00;;;;5028787;28;20200;-81
2021/10/12 02:10:09;;;;;;;3.38;0.35;;;;;17.70;102161.00;;;;5028302;28;20677;-81
2021/10/12 02:12:38;;;;;;;0.95;0.40;;;;;17.70;102156.00;;;;5047976;28;20231;-81
2021/10/12 02:15:07;;;;;;;1.92;0.57;;;;;17.70;102149.00;;;;5049254;28;20244;-81
2021/10/12 02:17:34;;;;;;;2.35;0.28;;;;;17.70;102150.00;;;;5036660;28;20198;-81
2021/10/12 02:20:01;;;;;;;1.50;0.40;;;;;17.70;102140.00;;;;5027940;28;20223;-81
2021/10/12 02:22:29;;;;;;;2.13;0.98;;;;;17.70;102145.00;;;;5028321;28;20204;-81
2021/10/12 02:24:56;;;;;;;2.10;0.50;;;;;17.70;102145.00;;;;5048022;28;20609;-81
2021/10/12 02:27:23;;;;;;;1.85;0.17;;;;;17.70;102140.00;;;;5037206;28;20192;-81
2021/10/12 02:29:52;;;;;;;1.15;0.30;;;;;17.70;102145.00;;;;5042022;28;20204;-80
2021/10/12 02:32:19;;;;;;;0.93;0.40;;;;;17.70;102144.00;;;;5062820;28;20631;-81
2021/10/12 02:34:47;;;;;;;1.40;0.50;;;;;17.70;102130.00;;;;5028484;28;20205;-81
2021/10/12 02:37:14;;;;;;;1.73;0.40;;;;;17.70;102133.00;;;;5037587;28;20235;-80
2021/10/12 02:39:41;;;;;;;1.67;0.50;;;;;17.70;102133.00;;;;5047877;28;20306;-81
2021/10/12 02:42:09;;;;;;;1.60;0.30;;;;;17.70;102120.00;;;;5047710;28;20191;-81
2021/10/12 02:44:37;;;;;;;1.05;0.20;;;;;17.70;102115.00;;;;5043451;28;20200;-80
2021/10/12 02:47:06;;;;;;;0.75;0.20;;;;;17.70;102112.00;;;;5033540;28;20200;-81
2021/10/12 02:49:33;;;;;;;1.92;0.40;;;;;17.70;102111.00;;;;5038244;28;20200;-81
2021/10/12 02:52:00;;;;;;;1.80;0.20;;;;;17.70;102109.00;;;;5054646;28;20226;-80
2021/10/12 02:54:28;;;;;;;1.25;0.20;;;;;17.70;102104.00;;;;5067817;28;20222;-81
2021/10/12 02:56:56;;;;;;;2.30;0.45;;;;;17.70;102096.00;;;;5059167;28;20210;-80
2021/10/12 02:59:23;;;;;;;2.42;0.35;;;;;17.70;102098.00;;;;5048681;28;20276;-81
2021/10/12 03:01:50;;;;;;;0.70;0.43;;;;;17.70;102095.00;;;;5048567;28;20216;-80
2021/10/12 03:04:19;;;;;;;0.95;0.47;;;;;17.60;102087.00;;;;5032247;28;20203;-81
2021/10/12 03:06:46;;;;;;;0.90;0.32;;;;;17.70;102086.00;;;;5037337;28;20196;-80
2021/10/12 03:09:13;;;;;;;1.27;0.35;;;;;17.70;102080.00;;;;5051491;28;20207;-81
2021/10/12 03:11:40;;;;;;;0.77;0.50;;;;;17.60;102078.00;;;;5051473;28;20219;-81
2021/10/12 03:14:07;;;;;;;1.77;0.32;;;;;17.70;102078.00;;;;5051143;28;20207;-81
2021/10/12 03:16:35;;;;;;;0.65;0.20;;;;;17.60;102082.00;;;;5051119;28;20196;-80
2021/10/12 03:19:02;;;;;;;3.95;0.70;;;;;17.60;102073.00;;;;5050685;28;20200;-81
2021/10/12 03:21:34;;;;;;;5.20;0.82;;;;;17.60;102078.00;;;;5053844;28;20199;-81
2021/10/12 03:24:01;;;;;;;2.65;0.50;;;;;17.60;102069.00;;;;5045011;28;20200;-81
2021/10/12 03:26:30;;;;;;;1.50;0.68;;;;;17.60;102065.00;;;;5037833;28;20207;-81
2021/10/12 03:28:57;;;;;;;1.65;0.40;;;;;17.60;102067.00;;;;5059845;28;20282;-81
2021/10/12 03:31:25;;;;;;;2.08;0.40;;;;;17.60;102058.00;;;;5041977;28;20223;-81
2021/10/12 03:33:52;;;;;;;3.10;0.30;;;;;17.60;102053.00;;;;5031047;28;20203;-81
2021/10/12 03:36:19;;;;;;;2.72;0.40;;;;;17.60;102040.00;;;;5037130;28;20196;-81
2021/10/12 03:38:48;;;;;;;1.15;0.25;;;;;17.60;102040.00;;;;5051250;28;20228;-81
2021/10/12 03:41:15;;;;;;;1.83;0.35;;;;;17.60;102038.00;;;;5050747;28;20208;-81
2021/10/12 03:43:42;;;;;;;2.42;0.70;;;;;17.60;102039.00;;;;5047894;28;20218;-81
2021/10/12 03:46:09;;;;;;;1.95;0.38;;;;;17.60;102035.00;;;;5045002;28;20203;-81
2021/10/12 03:48:37;;;;;;;0.70;0.30;;;;;17.60;102029.00;;;;5031916;28;20216;-81
2021/10/12 03:51:07;;;;;;;1.35;0.47;;;;;17.60;102037.00;;;;5051924;28;20206;-81
2021/10/12 03:53:35;;;;;;;1.45;0.70;;;;;17.60;102036.00;;;;5044702;28;20232;-81
2021/10/12 03:56:03;;;;;;;1.73;0.40;;;;;17.60;102023.00;;;;5031055;28;20227;-81
2021/10/12 03:58:31;;;;;;;1.50;0.40;;;;;17.60;102022.00;;;;5030827;28;20207;-81
2021/10/12 04:00:58;;;;;;;0.70;0.30;;;;;17.50;102028.00;;;;5034071;28;20212;-81
2021/10/12 04:03:25;;;;;;;0.50;0.28;;;;;17.50;102020.00;;;;5050913;28;20199;-80
2021/10/12 04:05:53;;;;;;;1.88;0.30;;;;;17.50;102018.00;;;;5050895;28;20206;-81
2021/10/12 04:08:20;;;;;;;1.73;0.30;;;;;17.50;102011.00;;;;5031945;28;20207;-81
2021/10/12 04:10:47;;;;;;;1.50;0.40;;;;;17.50;102006.00;;;;5043516;28;20206;-81
2021/10/12 04:13:16;;;;;;;1.10;0.38;;;;;17.50;102008.00;;;;5050006;28;20231;-81
2021/10/12 04:15:43;;;;;;;2.50;0.35;;;;;17.50;102010.00;;;;5044463;28;20208;-81
2021/10/12 04:18:10;;;;;;;2.95;0.55;;;;;17.50;102004.00;;;;5050277;28;20199;-81
2021/10/12 04:20:38;;;;;;;1.10;0.20;;;;;17.50;101996.00;;;;5050538;28;20192;-81
2021/10/12 04:23:08;;;;;;;2.35;0.40;;;;;17.50;101993.00;;;;5060021;28;20218;-81
2021/10/12 04:25:36;;;;;;;1.10;0.32;;;;;17.50;101999.00;;;;5050155;28;20234;-81
2021/10/12 04:28:10;;;;;;;2.60;0.88;;;;;17.40;101994.00;;;;5037910;28;20231;-81
2021/10/12 04:30:39;;;;;;;1.70;0.43;;;;;17.40;101987.00;;;;5030270;28;20196;-81
2021/10/12 04:33:06;;;;;;;1.20;0.50;;;;;17.40;101974.00;;;;5032659;28;20226;-81
2021/10/12 04:35:34;;;;;;;1.75;0.55;;;;;17.40;101982.00;;;;5059037;28;20200;-81
2021/10/12 04:38:01;;;;;;;9.48;0.90;;;;;17.40;101981.00;;;;5059060;28;20221;-81
2021/10/12 04:40:29;;;;;;;1.10;0.73;;;;;17.40;101966.00;;;;5041029;28;20215;-81
2021/10/12 04:42:57;;;;;;;0.93;0.43;;;;;17.40;101978.00;;;;5035453;28;20197;-82
2021/10/12 04:45:24;;;;;;;2.50;0.70;;;;;17.40;101974.00;;;;5047879;28;20223;-81
2021/10/12 04:47:54;;;;;;;0.95;0.30;;;;;17.40;101979.00;;;;5040648;28;20196;-81
2021/10/12 04:50:22;;;;;;;1.63;0.80;;;;;17.40;101977.00;;;;5046252;28;20203;-81
2021/10/12 04:52:49;;;;;;;3.95;0.73;;;;;17.40;101976.00;;;;5056499;28;20246;-80
2021/10/12 04:55:16;;;;;;;2.15;0.65;;;;;17.40;101984.00;;;;5049439;28;20204;-81
2021/10/12 04:57:44;;;;;;;0.63;0.43;;;;;17.40;101973.00;;;;5049191;28;20617;-81
2021/10/12 05:00:13;;;;;;;1.40;0.55;;;;;17.40;101974.00;;;;5047688;28;20208;-81
2021/10/12 05:02:40;;;;;;;3.95;1.17;;;;;17.40;101974.00;;;;5047338;28;20203;-81
2021/10/12 05:05:09;;;;;;;2.60;0.80;;;;;17.40;101968.00;;;;5049607;28;20214;-81
2021/10/12 05:07:38;;;;;;;2.30;0.50;;;;;17.40;101968.00;;;;5034165;28;20207;-81
2021/10/12 05:10:07;;;;;;;1.98;0.90;;;;;17.40;101961.00;;;;5049298;28;20202;-81
2021/10/12 05:12:34;;;;;;;4.50;1.00;;;;;17.40;101957.00;;;;5029322;28;20231;-80
2021/10/12 05:15:01;;;;;;;2.35;0.55;;;;;17.40;101957.00;;;;5034241;28;20198;-79
2021/10/12 05:17:34;;;;;;;1.67;0.80;;;;;17.40;101945.00;;;;5046651;28;20222;-79
2021/10/12 05:20:02;;;;;;;2.22;0.52;;;;;17.40;101947.00;;;;5036306;28;20624;-78
2021/10/12 05:22:31;;;;;;;2.67;0.80;;;;;17.40;101941.00;;;;5054112;28;20219;-79
2021/10/12 05:24:58;;;;;;;3.53;0.68;;;;;17.50;101944.00;;;;5041362;28;20250;-80
2021/10/12 05:27:26;;;;;;;2.33;1.00;;;;;17.50;101935.00;;;;5039829;28;20207;-80
2021/10/12 05:29:53;;;;;;;2.33;0.90;;;;;17.50;101945.00;;;;5049354;28;20207;-81
2021/10/12 05:32:20;;;;;;;2.50;0.73;;;;;17.50;101947.00;;;;5048954;28;20219;-79
2021/10/12 05:34:48;;;;;;;2.45;0.80;;;;;17.50;101942.00;;;;5043988;28;20207;-79
2021/10/12 05:37:15;;;;;;;1.48;0.88;;;;;17.50;101932.00;;;;5029166;28;20200;-78
2021/10/12 05:39:43;;;;;;;1.60;0.65;;;;;17.40;101935.00;;;;5030059;28;20228;-79
2021/10/12 05:42:11;;;;;;;1.30;0.82;;;;;17.50;101930.00;;;;5031134;28;20204;-80
2021/10/12 05:44:38;;;;;;;3.03;0.95;;;;;17.50;101935.00;;;;5046548;28;20203;-80
2021/10/12 05:47:05;;;;;;;3.35;0.90;;;;;17.50;101926.00;;;;5039990;28;20227;-81
2021/10/12 05:49:32;;;;;;;2.72;1.17;;;;;17.50;101919.00;;;;5037887;28;20203;-80
2021/10/12 05:52:02;;;;;;;1.02;0.82;;;;;17.50;101915.00;;;;5036835;28;20223;-80
2021/10/12 05:54:31;;;;;;;2.15;1.20;;;;;17.60;101911.00;;;;5036079;28;20252;-80
2021/10/12 05:57:05;;;;;;;2.15;1.35;;;;;17.60;101905.00;;;;5042067;28;20200;-79
2021/10/12 05:59:32;;;;;;;9.82;1.77;;;;;17.60;101893.00;;;;5035273;28;20208;-84
2021/10/12 06:01:59;;;;;;;1.13;0.90;;;;;17.60;101891.00;;;;5047981;28;20238;-84
2021/10/12 06:04:26;;;;;;;2.10;1.20;;;;;17.60;101896.00;;;;5048134;28;20199;-84
2021/10/12 06:06:56;;;;;;;2.55;1.00;;;;;17.60;101896.00;;;;5048588;28;20211;-84
2021/10/12 06:09:23;;;;;;;1.70;1.15;;;;;17.60;101893.00;;;;5038072;28;20761;-84
2021/10/12 06:11:50;;;;;;;2.35;1.27;;;;;17.60;101895.00;;;;5028599;28;20196;-84
2021/10/12 06:14:19;;;;;;;2.22;1.40;;;;;17.60;101890.00;;;;5028285;28;20231;-83
2021/10/12 06:16:46;;;;;;;2.15;1.50;;;;;17.60;101886.00;;;;5028477;28;20208;-84
2021/10/12 06:19:13;;;;;;;3.63;1.58;;;;;17.60;101895.00;;;;5028477;28;20204;-84
2021/10/12 06:21:41;;;;;;;2.28;1.23;;;;;17.70;101883.00;;;;5048671;28;20200;-84
2021/10/12 06:24:08;;;;;;;1.58;1.38;;;;;17.70;101892.00;;;;5048661;28;20580;-84
2021/10/12 06:26:35;;;;;;;3.15;1.70;;;;;17.70;101892.00;;;;5040159;28;20204;-84
2021/10/12 06:29:03;;;;;;;2.55;1.23;;;;;17.70;101889.00;;;;5047496;28;20203;-85
2021/10/12 06:31:32;;;;;;;1.92;1.08;;;;;17.70;101893.00;;;;5048038;28;20199;-84
2021/10/12 06:33:59;;;;;;;1.98;1.20;;;;;17.70;101889.00;;;;5049196;28;20218;-84
2021/10/12 06:36:26;;;;;;;2.35;1.58;;;;;17.70;101891.00;;;;5051522;28;20191;-84
2021/10/12 06:38:53;;;;;;;2.75;1.55;;;;;17.70;101883.00;;;;5051734;28;20464;-84
2021/10/12 06:41:21;;;;;;;1.75;1.20;;;;;17.80;101891.00;;;;5052449;28;20202;-84
2021/10/12 06:43:48;;;;;;;3.50;1.70;;;;;17.80;101888.00;;;;5037473;28;20299;-84
2021/10/12 06:46:15;;;;;;;1.90;1.35;;;;;17.80;101882.00;;;;5032552;28;20203;-84
2021/10/12 06:48:44;;;;;;;4.53;1.85;;;;;17.80;101886.00;;;;5044175;28;20653;-84
2021/10/12 06:51:11;;;;;;;2.30;1.40;;;;;17.80;101880.00;;;;5051853;28;20207;-85
2021/10/12 06:53:42;;;;;;;4.05;1.70;;;;;17.80;101880.00;;;;5055560;28;20230;-85
2021/10/12 06:56:10;;;;;;;4.20;1.52;;;;;17.80;101874.00;;;;5055605;28;20199;-84
2021/10/12 06:58:37;;;;;;;4.13;1.92;;;;;17.90;101883.00;;;;5052453;28;20196;-84
2021/10/12 07:01:04;;;;;;;3.60;1.85;;;;;17.90;101878.00;;;;5041767;28;20200;-84
2021/10/12 07:03:32;;;;;;;3.45;2.38;;;;;17.90;101878.00;;;;5051186;28;20192;-84
2021/10/12 07:06:00;;;;;;;3.80;1.92;;;;;17.90;101877.00;;;;5051345;28;20203;-84
2021/10/12 07:08:27;;;;;;;3.30;2.45;;;;;17.90;101873.00;;;;5050763;28;20216;-84
2021/10/12 07:10:55;;;;;;;4.53;2.20;;;;;18.00;101874.00;;;;5049199;28;20200;-84
2021/10/12 07:13:28;;;;;;;2.80;1.80;;;;;18.00;101879.00;;;;5049237;28;20215;-84
2021/10/12 07:15:56;;;;;;;2.88;2.05;;;;;18.00;101870.00;;;;5049623;28;20286;-82
2021/10/12 07:18:23;;;;;;;2.83;1.98;;;;;18.00;101864.00;;;;5032401;28;20302;-83
2021/10/12 07:20:50;;;;;;;3.50;2.20;;;;;18.00;101870.00;;;;5046222;28;20212;-83
2021/10/12 07:23:19;;;;;;;5.20;2.28;;;;;18.10;101871.00;;;;5048623;28;20203;-85
2021/10/12 07:25:48;;;;;;;3.70;1.90;;;;;18.10;101869.00;;;;5048818;28;20196;-84
2021/10/12 07:28:15;;;;;;;2.50;2.00;;;;;18.10;101870.00;;;;5048407;28;20203;-83
2021/10/12 07:30:43;;;;;;;3.38;2.17;;;;;18.10;101869.00;;;;5038679;28;20191;-83
2021/10/12 07:33:10;;;;;;;4.20;2.25;;;;;18.20;101855.00;;;;5050350;28;20226;-83
2021/10/12 07:35:42;;;;;;;4.63;2.40;;;;;18.20;101848.00;;;;5057186;28;20252;-83
2021/10/12 07:38:11;;;;;;;4.45;2.20;;;;;18.20;101848.00;;;;5070420;28;20201;-83
2021/10/12 07:40:41;;;;;;;3.97;2.60;;;;;18.30;101847.00;;;;5070084;28;20561;-83
2021/10/12 07:43:09;;;;;;;2.38;1.60;;;;;18.30;101847.00;;;;5039839;28;20735;-82
2021/10/12 07:45:36;;;;;;;3.60;1.90;;;;;18.40;101848.00;;;;5050246;28;20211;-82
2021/10/12 07:48:03;;;;;;;3.50;1.95;;;;;18.40;101850.00;;;;5041002;28;20200;-83
2021/10/12 07:50:30;;;;;;;2.35;1.60;;;;;18.50;101848.00;;;;5044568;28;20665;-83
2021/10/12 07:52:58;;;;;;;3.22;2.03;;;;;18.50;101839.00;;;;5038357;28;20235;-83
2021/10/12 07:55:33;;;;;;;3.53;1.80;;;;;18.50;101848.00;;;;5049658;28;20204;-83
2021/10/12 07:58:02;;;;;;;2.33;1.40;;;;;18.60;101836.00;;;;5049137;28;20209;-82
2021/10/12 08:00:31;;;;;;;2.35;2.00;;;;;18.60;101845.00;;;;5049924;28;20223;-82
2021/10/12 08:02:59;;;;;;;3.17;1.80;;;;;18.70;101838.00;;;;5029925;28;20196;-83
2021/10/12 08:05:26;;;;;;;5.47;1.92;;;;;18.80;101839.00;;;;5043617;28;20227;-82
2021/10/12 08:07:55;;;;;;;4.15;1.48;;;;;18.80;101834.00;;;;5049383;28;20675;-82
2021/10/12 08:10:23;;;;;;;3.78;1.83;;;;;18.90;101844.00;;;;5029681;28;20227;-83
2021/10/12 08:12:54;;;;;;;3.25;1.58;;;;;18.90;101835.00;;;;5038771;28;20195;-82
2021/10/12 08:15:23;;;;;;;3.75;1.63;;;;;18.90;101839.00;;;;5049536;28;20200;-84
2021/10/12 08:17:51;;;;;;;3.50;1.50;;;;;19.00;101843.00;;;;5049009;28;20200;-83
2021/10/12 08:20:18;;;;;;;4.53;1.60;;;;;19.00;101833.00;;;;5049460;28;20588;-83
2021/10/12 08:22:46;;;;;;;3.70;1.67;;;;;19.00;101832.00;;;;5049039;28;20195;-83
2021/10/12 08:25:13;;;;;;;5.90;1.77;;;;;19.00;101826.00;;;;5044158;28;20203;-85
2021/10/12 08:27:42;;;;;;;2.15;1.38;;;;;19.00;101832.00;;;;5049621;28;20195;-84
2021/10/12 08:30:11;;;;;;;2.78;1.52;;;;;19.00;101820.00;;;;5049085;28;20207;-83
2021/10/12 08:32:43;;;;;;;4.60;1.38;;;;;19.00;101829.00;;;;5048662;28;20601;-83
2021/10/12 08:35:11;;;;;;;1.60;0.88;;;;;19.00;101836.00;;;;5048920;28;20223;-83
2021/10/12 08:37:39;;;;;;;1.83;0.90;;;;;19.00;101830.00;;;;5049442;28;20290;-84
2021/10/12 08:40:12;;;;;;;1.55;0.93;;;;;19.00;101823.00;;;;5048263;28;20231;-83
2021/10/12 08:42:45;;;;;;;2.88;0.60;;;;;19.00;101813.00;;;;5041131;28;20204;-83
2021/10/12 08:45:14;;;;;;;3.63;0.85;;;;;19.00;101820.00;;;;5028658;28;20232;-83
2021/10/12 08:47:43;;;;;;;2.90;1.00;;;;;19.00;101823.00;;;;5028624;28;20196;-83
2021/10/12 08:50:13;;;;;;;2.40;0.55;;;;;19.00;101813.00;;;;5028417;28;20209;-83
2021/10/12 08:52:40;;;;;;;2.95;0.63;;;;;19.10;101819.00;;;;5029024;28;20220;-83
2021/10/12 08:55:08;;;;;;;2.63;0.63;;;;;19.10;101824.00;;;;5029307;28;20224;-82
2021/10/12 08:57:37;;;;;;;3.05;0.90;;;;;19.10;101831.00;;;;5028500;28;20212;-83
2021/10/12 09:00:08;;;;;;;2.00;0.80;;;;;19.10;101833.00;;;;5043818;28;20200;-84
2021/10/12 09:02:54;;;;;;;3.15;0.75;;;;;19.10;101829.00;;;;5048271;28;20223;-84
2021/10/12 09:05:26;;;;;;;3.53;0.90;;;;;19.10;101837.00;;;;5048784;28;20214;-83
2021/10/12 09:07:53;;;;;;;3.58;1.33;;;;;19.10;101834.00;;;;5036648;28;20203;-83
2021/10/12 09:10:22;;;;;;;1.98;0.55;;;;;19.10;101818.00;;;;5041360;28;20685;-82
2021/10/12 09:12:53;;;;;;;0.68;0.40;;;;;19.00;101821.00;;;;5048175;28;20208;-83
2021/10/12 09:15:21;;;;;;;2.58;0.50;;;;;19.00;101822.00;;;;5047151;28;20230;-81
2021/10/12 09:17:52;;;;;;;2.38;0.30;;;;;19.00;101821.00;;;;5057525;28;20658;-82
2021/10/12 09:20:32;;;;;;;1.98;0.40;;;;;18.80;101830.00;;;;5068086;28;20219;-81
2021/10/12 09:23:21;;;;;;;1.45;0.45;;;;;18.80;101817.00;;;;5068397;28;20210;-82
2021/10/12 09:25:49;;;;;;;0.60;0.32;;;;;18.90;101828.00;;;;5063630;28;20290;-83
2021/10/12 09:28:23;;;;;;;0.88;0.32;;;;;18.80;101823.00;;;;5032754;28;20208;-81
2021/10/12 09:30:54;;;;;;;1.80;0.20;;;;;18.80;101821.00;;;;5029175;28;20208;-81
2021/10/12 09:33:21;;;;;;;3.47;0.43;;;;;18.80;101817.00;;;;5039165;28;20199;-81
2021/10/12 09:35:50;;;;;;;0.90;0.25;;;;;18.80;101811.00;;;;5048640;28;20215;-82
2021/10/12 09:38:19;;;;;;;1.42;0.20;;;;;18.90;101792.00;;;;5048648;28;20188;-82
2021/10/12 09:40:47;;;;;;;0.60;0.22;;;;;18.90;101785.00;;;;5048417;28;20268;-81
2021/10/12 09:43:18;;;;;;;1.75;0.28;;;;;18.90;101795.00;;;;5047839;28;20208;-82
2021/10/12 09:45:46;;;;;;;1.73;0.30;;;;;18.90;101803.00;;;;5048180;28;20298;-82
2021/10/12 09:48:33;;;;;;;1.10;0.30;;;;;18.80;101795.00;;;;5040533;28;20666;-82
2021/10/12 09:51:13;;;;;;;2.05;0.40;;;;;18.90;101795.00;;;;5028588;28;20211;-82
2021/10/12 09:53:42;;;;;;;1.75;0.57;;;;;19.00;101791.00;;;;5027901;28;20608;-82
2021/10/12 09:56:10;;;;;;;1.25;0.60;;;;;19.20;101783.00;;;;5055538;28;20226;-82
2021/10/12 09:58:38;;;;;;;1.50;0.30;;;;;19.30;101774.00;;;;5061568;28;20207;-81
2021/10/12 10:01:07;;;;;;;2.47;0.60;;;;;19.40;101778.00;;;;5043969;28;20208;-82
2021/10/12 10:03:35;;;;;;;1.35;0.43;;;;;19.60;101776.00;;;;5053020;28;20199;-82
2021/10/12 10:06:05;;;;;;;1.13;0.40;;;;;19.70;101781.00;;;;5051723;28;20379;-82
2021/10/12 10:08:36;;;;;;;1.10;0.38;;;;;19.80;101780.00;;;;5034870;28;21305;-82
2021/10/12 10:11:05;;;;;;;0.73;0.20;;;;;19.90;101781.00;;;;5045689;28;20199;-82
2021/10/12 10:13:37;;;;;;;1.45;0.40;;;;;20.10;101775.00;;;;5047127;28;20210;-82
2021/10/12 10:16:06;;;;;;;0.98;0.30;;;;;20.20;101775.00;;;;5047123;28;20199;-81
2021/10/12 10:18:34;;;;;;;2.35;0.22;;;;;20.30;101775.00;;;;5047050;28;20199;-82
2021/10/12 10:21:03;;;;;;;1.40;0.32;;;;;20.40;101774.00;;;;5047051;28;20235;-81
2021/10/12 10:23:54;;;;;;;1.00;0.20;;;;;20.40;101776.00;;;;5043582;28;20286;-82
2021/10/12 10:26:27;;;;;;;2.67;0.20;;;;;20.60;101774.00;;;;5043638;28;20738;-82
2021/10/12 10:28:56;;;;;;;2.33;0.77;;;;;20.70;101776.00;;;;5060523;28;20211;-82
2021/10/12 10:31:39;;;;;;;1.02;0.25;;;;;20.80;101772.00;;;;5057486;28;20684;-82
2021/10/12 10:34:42;;;;;;;1.23;0.30;;;;;20.90;101768.00;;;;5041103;28;20242;-82
2021/10/12 10:37:32;;;;;;;1.58;0.43;;;;;21.00;101769.00;;;;5059787;28;20213;-82
2021/10/12 10:40:26;;;;;;;0.40;0.30;;;;;21.00;101773.00;;;;5046799;28;20238;-82
2021/10/12 10:43:03;;;;;;;1.65;0.38;;;;;21.10;101772.00;;;;5027558;28;20192;-82
2021/10/12 10:45:51;;;;;;;2.13;0.30;;;;;21.10;101771.00;;;;5026908;28;20200;-82
2021/10/12 10:48:21;;;;;;;1.05;0.20;;;;;21.20;101781.00;;;;5034414;28;20196;-82
2021/10/12 10:50:48;;;;;;;1.17;0.30;;;;;21.10;101779.00;;;;5027609;28;20200;-82
2021/10/12 10:53:36;;;;;;;2.40;0.57;;;;;21.00;101778.00;;;;5026766;28;20220;-83
2021/10/12 10:56:05;;;;;;;2.63;0.20;;;;;21.00;101783.00;;;;5056906;28;20203;-81
2021/10/12 10:58:32;;;;;;;1.20;0.28;;;;;21.00;101788.00;;;;5042342;28;20200;-82
2021/10/12 11:00:59;;;;;;;0.47;0.10;;;;;20.90;101785.00;;;;5031244;28;20215;-82
2021/10/12 11:03:42;;;;;;;0.20;0.10;;;;;20.70;101782.00;;;;5046457;28;20192;-83
2021/10/12 11:06:19;;;;;;;1.00;0.65;;;;;20.60;101783.00;;;;5046583;28;20219;-83
2021/10/12 11:08:58;;;;;;;0.20;0.10;;;;;20.60;101777.00;;;;5047102;28;20575;-82
2021/10/12 11:11:32;;;;;;;0.20;0.10;;;;;20.60;101785.00;;;;5047174;28;20204;-82
2021/10/12 11:14:00;;;;;;;0.47;0.10;;;;;20.60;101788.00;;;;5046747;28;20222;-82
2021/10/12 11:16:35;;;;;;;1.98;0.05;;;;;20.50;101783.00;;;;5028268;28;20211;-82
2021/10/12 11:19:03;;;;;;;0.60;0.10;;;;;20.60;101782.00;;;;5027097;28;20287;-82
2021/10/12 11:21:31;;;;;;;0.47;0.20;;;;;20.70;101783.00;;;;5027911;28;20204;-82
2021/10/12 11:23:58;;;;;;;0.20;0.10;;;;;20.80;101783.00;;;;5030168;28;20666;-82
2021/10/12 11:26:29;;;;;;;0.65;0.10;;;;;20.90;101781.00;;;;5042162;28;20229;-84
2021/10/12 11:28:58;;;;;;;1.58;0.45;;;;;21.00;101786.00;;;;5033568;28;20196;-83
2021/10/12 11:31:27;;;;;;;1.35;0.20;;;;;21.10;101779.00;;;;5034188;28;20197;-83
2021/10/12 11:33:57;;;;;;;0.95;0.30;;;;;21.10;101776.00;;;;5029583;28;20207;-83
2021/10/12 11:36:27;;;;;;;0.30;0.10;;;;;21.10;101786.00;;;;5032400;28;20200;-82
2021/10/12 11:38:56;;;;;;;0.28;0.20;;;;;21.20;101782.00;;;;5060147;28;20223;-82
2021/10/12 11:41:27;;;;;;;0.43;0.10;;;;;21.20;101783.00;;;;5050233;28;20253;-83
2021/10/12 11:43:56;;;;;;;0.28;0.15;;;;;21.20;101781.00;;;;5048062;28;20199;-82
2021/10/12 11:46:26;;;;;;;0.00;0.00;;;;;21.20;101771.00;;;;5057523;28;20195;-81
2021/10/12 11:48:55;;;;;;;0.70;0.20;;;;;21.30;101772.00;;;;5052162;28;20196;-82
2021/10/12 11:51:25;;;;;;;2.00;0.10;;;;;21.30;101772.00;;;;5030105;28;20270;-82
2021/10/12 11:53:54;;;;;;;0.30;0.10;;;;;21.30;101772.00;;;;5030909;28;20224;-83
2021/10/12 11:56:22;;;;;;;0.30;0.05;;;;;21.30;101779.00;;;;5050225;28;20200;-82
2021/10/12 11:58:57;;;;;;;1.10;0.20;;;;;21.30;101776.00;;;;5049837;28;20210;-81
2021/10/12 12:01:30;;;;;;;2.03;0.20;;;;;21.40;101775.00;;;;5041098;28;20192;-82
2021/10/12 12:03:58;;;;;;;0.35;0.10;;;;;21.40;101775.00;;;;5029423;28;20204;-82
2021/10/12 12:06:27;;;;;;;1.00;0.10;;;;;21.50;101774.00;;;;5039888;28;20208;-82
2021/10/12 12:08:57;;;;;;;1.20;0.10;;;;;21.50;101784.00;;;;5049859;28;20230;-82
2021/10/12 12:11:26;;;;;;;0.77;0.30;;;;;21.60;101792.00;;;;5050065;28;20200;-82
2021/10/12 12:13:56;;;;;;;0.73;0.30;;;;;21.60;101793.00;;;;5049813;28;20284;-81
2021/10/12 12:16:24;;;;;;;0.43;0.13;;;;;21.60;101794.00;;;;5049229;28;20192;-81
2021/10/12 12:18:52;;;;;;;0.80;0.15;;;;;21.60;101780.00;;;;5048864;28;20750;-82